Time;durP1;ratioP1;P1;durP2;ratioP2;P2;SDS_P1;SDS_P2;PMS_P1;PMS_P2;Temp;Humidity;BMP_temperature;BMP_pressure;BME280_temperature;BME280_humidity;BME280_pressure;Samples;Min_cycle;Max_cycle;Signal;HPM_P1;HPM_P2
2022/12/24 00:01:09;;;;;;;60.65;29.57;;;;;;;5.76;90.47;99802.50;1650994;85;21144;-75
2022/12/24 00:03:54;;;;;;;62.65;31.20;;;;;;;5.75;90.48;99808.49;1641075;85;21112;-75
2022/12/24 00:06:39;;;;;;;64.10;30.57;;;;;;;5.77;90.49;99816.17;1640601;85;21117;-74
2022/12/24 00:09:24;;;;;;;50.45;26.95;;;;;;;5.78;90.49;99814.03;1644989;85;22217;-74
2022/12/24 00:12:10;;;;;;;52.75;27.82;;;;;;;5.78;90.48;99808.47;1618228;86;21129;-74
2022/12/24 00:14:55;;;;;;;52.98;27.65;;;;;;;5.76;90.43;99817.89;1650644;85;21093;-74
2022/12/24 00:17:40;;;;;;;46.30;26.68;;;;;;;5.75;90.44;99813.62;1642012;85;21120;-75
2022/12/24 00:20:25;;;;;;;45.48;26.02;;;;;;;5.76;90.44;99811.91;1650725;85;21129;-75
2022/12/24 00:23:11;;;;;;;46.85;25.72;;;;;;;5.76;90.52;99810.20;1611899;86;21619;-75
2022/12/24 00:25:56;;;;;;;49.45;27.15;;;;;;;5.77;90.51;99814.89;1618587;87;21086;-75
2022/12/24 00:28:41;;;;;;;47.65;25.27;;;;;;;5.77;90.47;99819.59;1619537;86;21586;-75
2022/12/24 00:31:26;;;;;;;43.83;24.80;;;;;;;5.75;90.45;99811.06;1640446;85;21129;-75
2022/12/24 00:34:11;;;;;;;46.77;24.65;;;;;;;5.75;90.47;99808.92;1637219;85;21164;-75
2022/12/24 00:36:56;;;;;;;45.23;24.37;;;;;;;5.75;90.46;99815.34;1640489;86;21065;-75
2022/12/24 00:39:42;;;;;;;47.15;23.90;;;;;;;5.74;90.47;99812.36;1605987;87;21509;-75
2022/12/24 00:42:27;;;;;;;48.92;25.92;;;;;;;5.73;90.50;99813.22;1603066;87;21079;-75
2022/12/24 00:45:12;;;;;;;48.68;25.62;;;;;;;5.74;90.52;99813.64;1640426;85;21029;-75
2022/12/24 00:47:57;;;;;;;50.03;24.77;;;;;;;5.72;90.47;99808.98;1630980;85;21129;-75
2022/12/24 00:50:42;;;;;;;50.17;23.50;;;;;;;5.69;90.40;99809.02;1631839;87;21553;-75
2022/12/24 00:53:27;;;;;;;43.98;23.30;;;;;;;5.67;90.48;99803.89;1637534;85;21130;-75
2022/12/24 00:56:12;;;;;;;45.45;23.32;;;;;;;5.65;90.44;99808.19;1640169;85;21065;-75
2022/12/24 00:58:57;;;;;;;47.20;23.57;;;;;;;5.65;90.51;99812.89;1635621;85;21097;-75
2022/12/24 01:01:43;;;;;;;42.73;22.65;;;;;;;5.66;90.48;99809.89;1640898;86;21117;-75
2022/12/24 01:07:31;;;;;;;40.33;22.27;;;;;;;5.62;90.49;99819.33;1636843;85;21486;-75
2022/12/24 01:10:19;;;;;;;42.27;22.52;;;;;;;5.61;90.53;99809.08;1639310;85;21625;-75
2022/12/24 01:13:04;;;;;;;40.12;22.65;;;;;;;5.60;90.46;99816.36;1637095;85;21879;-75
2022/12/24 01:15:49;;;;;;;45.80;24.75;;;;;;;5.59;90.52;99806.53;1632443;85;21076;-74
2022/12/24 01:18:34;;;;;;;41.35;23.15;;;;;;;5.58;90.45;99809.95;1640355;85;21161;-75
2022/12/24 01:21:19;;;;;;;39.33;22.17;;;;;;;5.54;90.41;99804.44;1641553;86;21069;-75
2022/12/24 01:24:05;;;;;;;43.80;23.00;;;;;;;5.52;90.40;99815.14;1638347;85;21005;-75
2022/12/24 01:26:51;;;;;;;40.88;22.15;;;;;;;5.51;90.43;99822.84;1638655;86;32569;-75
2022/12/24 01:29:36;;;;;;;41.00;22.95;;;;;;;5.51;90.49;99819.00;1641186;85;21117;-75
2022/12/24 01:32:21;;;;;;;42.95;21.12;;;;;;;5.50;90.46;99820.70;1632992;85;21405;-75
2022/12/24 01:35:08;;;;;;;45.80;22.55;;;;;;;5.50;90.45;99817.30;1641971;85;21093;-75
2022/12/24 01:37:53;;;;;;;;;;;;;;;5.49;90.47;99809.18;1643730;85;20957;-75
2022/12/24 01:43:43;;;;;;;36.03;20.35;;;;;;;5.47;90.46;99809.20;1633056;87;29021;-75
2022/12/24 01:46:32;;;;;;;37.35;20.48;;;;;;;5.46;90.42;99816.90;1637737;86;21066;-75
2022/12/24 01:49:18;;;;;;;33.60;20.17;;;;;;;5.43;90.43;99821.62;1641159;85;21073;-75
2022/12/24 01:52:08;;;;;;;34.80;19.65;;;;;;;5.43;90.48;99824.61;1635323;85;25267;-75
2022/12/24 01:54:58;;;;;;;40.50;21.07;;;;;;;5.43;90.47;99821.62;1575954;89;21014;-75
2022/12/24 01:57:50;;;;;;;35.25;20.62;;;;;;;5.43;90.46;99815.64;1602384;87;20953;-75
2022/12/24 02:00:35;;;;;;;32.67;19.92;;;;;;;5.42;90.49;99813.51;1614426;85;20938;-75
2022/12/24 02:03:20;;;;;;;35.33;21.70;;;;;;;5.43;90.49;99814.36;1022635;85;14216736;-75
2022/12/24 02:06:07;;;;;;;33.47;20.93;;;;;;;5.42;90.49;99819.92;1567629;89;21520;-75
2022/12/24 02:08:52;;;;;;;33.80;19.17;;;;;;;5.43;90.49;99820.34;1566530;89;21291;-75
2022/12/24 02:11:41;;;;;;;35.55;19.42;;;;;;;5.43;90.46;99825.47;1568505;90;21109;-75
2022/12/24 02:14:31;;;;;;;30.62;18.02;;;;;;;5.43;90.46;99820.34;1565175;89;21169;-75
2022/12/24 02:17:35;;;;;;;29.60;17.82;;;;;;;5.41;90.43;99820.78;1574754;89;21542;-75
2022/12/24 02:21:03;;;;;;;24.67;16.17;;;;;;;5.40;90.44;99821.64;1566517;89;21572;-75
2022/12/24 02:24:23;;;;;;;24.60;14.45;;;;;;;5.41;90.49;99822.49;1575803;89;21627;-75
2022/12/24 02:27:22;;;;;;;27.62;15.38;;;;;;;5.39;90.48;99820.38;1534456;92;21123;-75
2022/12/24 02:30:32;;;;;;;29.10;16.65;;;;;;;5.36;90.46;99818.69;1527920;92;21183;-75
2022/12/24 02:33:37;;;;;;;23.80;15.43;;;;;;;5.37;90.46;99831.07;1536852;92;21190;-75
2022/12/24 02:36:30;;;;;;;29.25;16.07;;;;;;;5.35;90.48;99829.80;1522080;92;21181;-75
2022/12/24 02:39:23;;;;;;;27.37;15.93;;;;;;;5.31;90.48;99825.13;1501466;93;21176;-75
2022/12/24 02:42:12;;;;;;;28.07;16.87;;;;;;;5.30;90.46;99820.86;1491712;95;21163;-75
2022/12/24 02:45:05;;;;;;;24.95;16.93;;;;;;;5.30;90.47;99821.29;1515019;92;21594;-75
2022/12/24 02:47:52;;;;;;;28.52;17.00;;;;;;;5.29;90.45;99827.28;1526758;91;21190;-75
2022/12/24 02:50:37;;;;;;;28.32;16.65;;;;;;;5.28;90.43;99824.30;1512368;92;21139;-75
2022/12/24 02:53:22;;;;;;;31.27;17.95;;;;;;;5.25;90.41;99823.88;1500304;93;21661;-75
2022/12/24 02:56:23;;;;;;;30.90;18.80;;;;;;;5.24;90.39;99831.59;1525467;91;21609;-75
2022/12/24 02:59:29;;;;;;;32.08;19.07;;;;;;;5.21;90.34;99831.17;1613248;87;21117;-75
2022/12/24 03:02:51;;;;;;;30.15;18.23;;;;;;;5.18;90.38;99836.36;1611831;86;21530;-75
2022/12/24 03:05:52;;;;;;;29.77;17.50;;;;;;;5.15;90.36;99832.53;1609099;86;21145;-75
2022/12/24 03:08:42;;;;;;;24.65;16.17;;;;;;;5.12;90.35;99835.11;1599025;87;21120;-75
2022/12/24 03:11:27;;;;;;;21.60;15.25;;;;;;;5.11;90.37;99835.13;1594513;88;21108;-75
2022/12/24 03:14:14;;;;;;;27.65;15.43;;;;;;;5.12;90.42;99843.23;1599489;89;21508;-75
2022/12/24 03:16:59;;;;;;;;;;;;;;;5.09;90.34;99841.97;1639485;85;21141;-75
2022/12/24 03:19:46;;;;;;;24.23;15.58;;;;;;;5.07;90.36;99841.13;1615419;86;20241;-75
2022/12/24 03:22:34;;;;;;;32.95;17.25;;;;;;;5.04;90.35;99844.55;1586057;88;21072;-75
2022/12/24 03:25:21;;;;;;;31.33;17.12;;;;;;;5.04;90.38;99843.27;1604537;87;21061;-75
2022/12/24 03:28:09;;;;;;;28.67;17.52;;;;;;;5.04;90.38;99850.11;1642128;85;21593;-74
2022/12/24 03:30:54;;;;;;;29.50;17.42;;;;;;;5.05;90.41;99851.81;1610804;88;21485;-75
2022/12/24 03:33:40;;;;;;;28.75;17.87;;;;;;;5.04;90.41;99853.52;1608823;87;21054;-75
2022/12/24 03:36:25;;;;;;;27.58;17.15;;;;;;;5.04;90.39;99852.67;1616477;86;21089;-75
2022/12/24 03:39:10;;;;;;;29.98;18.75;;;;;;;5.04;90.41;99846.27;1597326;87;21121;-75
2022/12/24 03:41:55;;;;;;;32.35;18.30;;;;;;;5.02;90.41;99847.55;1598277;87;21124;-75
2022/12/24 03:44:40;;;;;;;33.92;19.42;;;;;;;5.02;90.38;99858.23;1580546;89;21105;-75
2022/12/24 03:47:25;;;;;;;32.93;18.57;;;;;;;4.98;90.34;99860.81;1593538;87;21073;-75
2022/12/24 03:50:10;;;;;;;37.80;19.67;;;;;;;4.96;90.39;99857.41;1637141;85;21163;-75
2022/12/24 03:52:55;;;;;;;32.00;18.40;;;;;;;4.95;90.38;99859.98;1639114;85;21057;-75
2022/12/24 03:55:41;;;;;;;31.02;18.85;;;;;;;4.95;90.46;99860.83;1633709;85;21079;-75
2022/12/24 03:58:26;;;;;;;27.90;18.00;;;;;;;4.95;90.44;99869.80;1635149;87;21114;-75
2022/12/24 04:01:11;;;;;;;32.40;18.92;;;;;;;4.94;90.43;99871.94;1611087;86;21586;-75
2022/12/24 04:03:56;;;;;;;29.98;18.15;;;;;;;4.95;90.48;99875.34;1604628;86;21065;-75
2022/12/24 04:06:41;;;;;;;30.82;19.15;;;;;;;4.95;90.46;99881.32;1609335;86;21105;-75
2022/12/24 04:09:26;;;;;;;31.65;19.00;;;;;;;4.94;90.48;99878.77;1603253;87;21089;-75
2022/12/24 04:12:11;;;;;;;28.85;18.40;;;;;;;4.91;90.44;99878.35;1606702;88;21080;-75
2022/12/24 04:14:56;;;;;;;30.15;17.73;;;;;;;4.93;90.54;99880.91;1598037;87;21084;-75
2022/12/24 04:17:42;;;;;;;26.00;16.37;;;;;;;4.93;90.58;99879.20;1589128;89;21060;-75
2022/12/24 04:20:27;;;;;;;28.23;16.45;;;;;;;4.92;90.49;99882.62;1597380;87;21140;-75
2022/12/24 04:23:12;;;;;;;29.48;17.23;;;;;;;4.93;90.53;99888.16;1600084;87;22125;-75
2022/12/24 04:26:04;;;;;;;26.10;15.78;;;;;;;4.90;90.41;99888.61;1604576;86;20996;-75
2022/12/24 04:28:49;;;;;;;34.13;16.12;;;;;;;4.89;90.52;99889.47;1597666;87;21028;-75
2022/12/24 04:31:34;;;;;;;24.30;14.73;;;;;;;4.85;90.42;99893.75;1636156;85;21155;-75
2022/12/24 04:34:19;;;;;;;23.77;15.10;;;;;;;4.84;90.42;99901.02;1610652;86;21092;-75
2022/12/24 04:37:04;;;;;;;21.93;14.00;;;;;;;4.81;90.45;99898.46;1584742;88;21147;-75
2022/12/24 04:39:49;;;;;;;23.62;14.43;;;;;;;4.81;90.46;99902.73;1587503;88;21761;-75
2022/12/24 04:42:34;;;;;;;24.63;13.93;;;;;;;4.78;90.45;99899.75;1576994;87;21449;-75
2022/12/24 04:45:20;;;;;;;26.85;14.50;;;;;;;4.79;90.47;99901.45;1642097;85;21160;-75
2022/12/24 04:48:05;;;;;;;21.27;13.70;;;;;;;4.75;90.38;99902.33;1651358;85;272773;-75
2022/12/24 04:50:51;;;;;;;19.60;12.37;;;;;;;4.74;90.44;99903.61;1654184;84;21090;-75
2022/12/24 04:53:36;;;;;;;20.43;12.80;;;;;;;4.74;90.46;99908.30;1659807;85;21151;-75
2022/12/24 04:56:25;;;;;;;20.25;12.47;;;;;;;4.72;90.44;99906.18;1628859;85;21527;-74
2022/12/24 04:59:11;;;;;;;21.87;12.33;;;;;;;4.71;90.46;99905.76;1656333;84;21116;-74
2022/12/24 05:01:56;;;;;;;21.33;12.00;;;;;;;4.73;90.47;99908.31;1657515;86;613643;-74
2022/12/24 05:04:41;;;;;;;20.80;12.68;;;;;;;4.73;90.43;99905.32;1665676;84;20944;-74
2022/12/24 05:07:26;;;;;;;19.77;12.98;;;;;;;4.67;90.30;99913.48;1661874;84;21311;-75
2022/12/24 05:10:11;;;;;;;19.25;12.00;;;;;;;4.61;90.37;99921.61;1664034;84;21471;-75
2022/12/24 05:12:56;;;;;;;21.37;12.28;;;;;;;4.60;90.33;99921.61;1660714;84;21079;-75
2022/12/24 05:15:43;;;;;;;20.05;12.53;;;;;;;4.57;90.31;99918.63;1630820;85;21625;-75
2022/12/24 05:18:28;;;;;;;19.75;10.90;;;;;;;4.55;90.32;99924.19;1662545;84;21669;-75
2022/12/24 05:21:17;;;;;;;20.77;12.30;;;;;;;4.55;90.41;99924.19;1661226;84;21548;-75
2022/12/24 05:27:07;;;;;;;20.32;12.00;;;;;;;4.52;90.35;99920.35;1664028;85;21077;-74
2022/12/24 05:29:51;;;;;;;18.82;11.28;;;;;;;4.54;90.44;99919.92;1633787;86;21012;-74
2022/12/24 05:32:37;;;;;;;20.60;11.78;;;;;;;4.52;90.34;99928.46;1662203;84;21151;-74
2022/12/24 05:35:22;;;;;;;21.55;12.40;;;;;;;4.53;90.35;99939.13;1644817;85;21065;-75
2022/12/24 05:38:07;;;;;;;20.40;11.93;;;;;;;4.54;90.37;99938.27;1642182;85;21121;-75
2022/12/24 05:40:52;;;;;;;19.42;12.05;;;;;;;4.53;90.35;99939.13;1645038;85;21156;-75
2022/12/24 05:43:38;;;;;;;19.87;11.95;;;;;;;4.55;90.36;99952.78;1618395;87;21589;-75
2022/12/24 05:46:24;;;;;;;18.07;10.93;;;;;;;4.54;90.35;99962.16;1637231;85;21073;-74
2022/12/24 05:49:09;;;;;;;17.90;11.50;;;;;;;4.55;90.38;99957.90;1628377;87;26594;-74
2022/12/24 05:51:54;;;;;;;19.98;11.33;;;;;;;4.56;90.38;99956.61;1629140;85;21524;-74
2022/12/24 05:54:39;;;;;;;18.57;10.68;;;;;;;4.57;90.31;99960.03;1586587;87;21092;-74
2022/12/24 05:57:25;;;;;;;19.10;11.80;;;;;;;4.57;90.31;99962.59;1637833;85;21164;-75
2022/12/24 06:00:11;;;;;;;23.50;11.75;;;;;;;4.56;90.24;99971.13;1634879;86;21509;-75
2022/12/24 06:02:55;;;;;;;20.88;11.85;;;;;;;4.55;90.30;99975.81;1589849;89;21155;-75
2022/12/24 06:05:41;;;;;;;19.42;10.98;;;;;;;4.54;90.25;99980.52;1643266;85;21533;-75
2022/12/24 06:08:27;;;;;;;19.30;11.20;;;;;;;4.53;90.28;99979.66;1639010;87;21137;-75
2022/12/24 06:11:15;;;;;;;17.27;11.00;;;;;;;4.53;90.25;99981.38;1639779;85;25235;-75
2022/12/24 06:14:00;;;;;;;17.98;11.05;;;;;;;4.51;90.18;99990.33;1572844;88;21088;-75
2022/12/24 06:16:46;;;;;;;19.90;10.75;;;;;;;4.51;90.20;99993.32;1641491;85;21582;-75
2022/12/24 06:19:31;;;;;;;18.52;10.08;;;;;;;4.50;90.21;99997.59;1590766;87;21539;-75
2022/12/24 06:22:16;;;;;;;18.17;10.10;;;;;;;4.45;90.07;99998.44;1592474;88;21553;-75
2022/12/24 06:25:01;;;;;;;17.90;10.95;;;;;;;4.42;90.15;100001.86;1640688;86;21691;-75
2022/12/24 06:27:46;;;;;;;16.42;10.28;;;;;;;4.42;90.21;100000.58;1641411;85;21116;-75
2022/12/24 06:30:31;;;;;;;17.82;10.45;;;;;;;4.42;90.23;100000.58;1640521;85;21168;-75
2022/12/24 06:33:17;;;;;;;17.75;11.15;;;;;;;4.40;90.18;100008.69;1588914;86;21088;-75
2022/12/24 06:36:09;;;;;;;23.40;11.93;;;;;;;4.38;90.12;100012.95;1593150;87;21316;-75
2022/12/24 06:38:55;;;;;;;19.77;11.25;;;;;;;4.36;90.08;100021.06;1594239;88;21116;-75
2022/12/24 06:41:40;;;;;;;22.37;10.32;;;;;;;4.31;90.08;100022.77;1590019;88;21077;-75
2022/12/24 06:44:25;;;;;;;17.12;10.55;;;;;;;4.28;90.04;100031.30;1593086;88;21089;-75
2022/12/24 06:47:10;;;;;;;17.70;10.85;;;;;;;4.27;90.07;100030.87;1592386;87;21683;-75
2022/12/24 06:49:55;;;;;;;19.37;11.60;;;;;;;4.27;90.10;100039.83;1573974;88;21093;-75
2022/12/24 06:52:41;;;;;;;16.23;10.03;;;;;;;4.29;90.12;100043.66;1598220;87;21683;-74
2022/12/24 06:55:26;;;;;;;21.40;10.40;;;;;;;4.27;90.09;100046.22;1646708;85;21112;-74
2022/12/24 06:58:11;;;;;;;17.98;9.75;;;;;;;4.29;90.15;100050.91;1650524;85;21133;-74
2022/12/24 07:00:56;;;;;;;21.25;11.48;;;;;;;4.28;90.12;100055.61;1647676;85;21112;-75
2022/12/24 07:03:41;;;;;;;17.62;11.03;;;;;;;4.30;90.19;100055.61;1646325;85;21073;-75
2022/12/24 07:06:28;;;;;;;21.73;12.30;;;;;;;4.29;90.11;100061.16;1647612;85;21559;-75
2022/12/24 07:09:14;;;;;;;21.60;12.82;;;;;;;4.28;90.07;100073.95;1648090;85;21152;-75
2022/12/24 07:11:59;;;;;;;25.62;14.10;;;;;;;4.26;90.01;100080.77;1641771;85;21080;-75
2022/12/24 07:14:44;;;;;;;22.40;12.78;;;;;;;4.26;90.07;100085.46;1610894;87;21069;-75
2022/12/24 07:17:29;;;;;;;24.90;13.55;;;;;;;4.26;90.01;100087.16;1598018;87;21617;-75
2022/12/24 07:20:14;;;;;;;25.57;12.30;;;;;;;4.26;90.07;100091.00;1598507;87;21134;-75
2022/12/24 07:22:59;;;;;;;19.48;11.28;;;;;;;4.27;90.11;100098.69;1597649;87;21081;-76
2022/12/24 07:25:44;;;;;;;14.07;9.18;;;;;;;4.25;90.04;100102.95;1647026;85;21076;-76
2022/12/24 07:28:30;;;;;;;16.02;9.55;;;;;;;4.27;90.09;100108.07;1646891;85;21647;-76
2022/12/24 07:31:14;;;;;;;23.15;10.78;;;;;;;4.28;90.09;100108.07;1645041;85;21171;-75
2022/12/24 07:33:59;;;;;;;19.92;10.30;;;;;;;4.27;90.05;100110.20;1646829;85;21141;-75
2022/12/24 07:36:44;;;;;;;18.55;11.22;;;;;;;4.30;90.09;100115.33;1641428;85;21523;-75
2022/12/24 07:39:29;;;;;;;19.32;11.57;;;;;;;4.33;90.21;100110.64;1640990;85;21142;-76
2022/12/24 07:42:14;;;;;;;16.32;10.05;;;;;;;4.35;90.12;100122.16;1590860;88;21111;-76
2022/12/24 07:45:00;;;;;;;17.73;11.48;;;;;;;4.33;90.04;100125.56;1640354;85;21097;-75
2022/12/24 07:47:44;;;;;;;22.52;13.55;;;;;;;4.34;90.04;100139.22;1620604;86;21057;-76
2022/12/24 07:50:29;;;;;;;26.68;14.90;;;;;;;4.36;90.07;100141.78;1639542;85;21589;-76
2022/12/24 07:53:15;;;;;;;30.70;17.98;;;;;;;4.36;90.06;100149.45;1642104;85;21161;-75
2022/12/24 07:56:00;;;;;;;23.35;14.30;;;;;;;4.37;90.03;100148.61;1596977;88;21352;-75
2022/12/24 07:58:45;;;;;;;25.30;14.18;;;;;;;4.38;90.06;100152.45;1641726;85;21180;-75
2022/12/24 08:01:30;;;;;;;29.07;15.90;;;;;;;4.41;90.12;100153.73;1587941;88;21065;-75
2022/12/24 08:04:15;;;;;;;26.15;15.75;;;;;;;4.43;90.05;100162.70;1597954;87;21105;-77
2022/12/24 08:07:02;;;;;;;39.13;24.02;;;;;;;4.45;90.09;100165.69;1640988;86;21652;-76
2022/12/24 08:09:47;;;;;;;46.28;25.92;;;;;;;4.50;90.13;100169.53;1619037;86;21736;-79
2022/12/24 08:12:32;;;;;;;24.90;17.02;;;;;;;4.52;90.12;100171.67;1641384;85;21681;-79
2022/12/24 08:15:18;;;;;;;21.85;14.40;;;;;;;4.52;90.05;100172.52;1640132;85;21109;-80
2022/12/24 08:18:03;;;;;;;23.55;13.60;;;;;;;4.55;90.07;100171.25;1633688;85;21165;-79
2022/12/24 08:20:49;;;;;;;24.32;13.10;;;;;;;4.57;90.10;100177.23;1639062;85;21097;-79
2022/12/24 08:23:34;;;;;;;22.70;14.33;;;;;;;4.57;90.07;100178.51;1640940;85;21483;-79
2022/12/24 08:26:18;;;;;;;22.45;14.05;;;;;;;4.60;90.11;100182.78;1640205;85;21844;-80
2022/12/24 08:29:05;;;;;;;24.12;14.00;;;;;;;4.64;90.12;100189.61;1639253;85;20959;-80
2022/12/24 08:31:50;;;;;;;24.05;14.87;;;;;;;4.66;90.05;100185.34;1619916;87;20958;-80
2022/12/24 08:34:35;;;;;;;25.60;15.35;;;;;;;4.69;90.07;100182.76;1594550;87;20954;-80
2022/12/24 08:37:20;;;;;;;26.97;14.87;;;;;;;4.70;90.07;100183.19;1641760;85;20986;-80
2022/12/24 08:40:06;;;;;;;24.15;14.63;;;;;;;4.73;90.08;100181.05;1642522;86;20942;-80
2022/12/24 08:42:51;;;;;;;27.85;14.68;;;;;;;4.74;89.98;100194.29;1642676;85;21062;-80
2022/12/24 08:45:38;;;;;;;23.67;14.98;;;;;;;4.73;89.98;100204.11;1642524;85;21333;-80
2022/12/24 08:48:23;;;;;;;23.27;13.75;;;;;;;4.69;89.89;100206.23;1642231;87;20942;-80
2022/12/24 08:51:10;;;;;;;29.00;15.50;;;;;;;4.70;90.03;100215.62;1642555;85;21531;-80
2022/12/24 08:53:54;;;;;;;27.93;16.17;;;;;;;4.71;89.99;100214.77;1643924;85;21484;-80
2022/12/24 08:56:40;;;;;;;25.30;16.27;;;;;;;4.72;90.03;100220.33;1642602;85;20970;-80
2022/12/24 08:59:25;;;;;;;26.05;15.08;;;;;;;4.72;89.97;100226.30;1642473;85;20974;-80
2022/12/24 09:02:11;;;;;;;24.45;16.27;;;;;;;4.69;89.91;100231.41;1642740;85;21499;-80
2022/12/24 09:04:56;;;;;;;26.68;17.00;;;;;;;4.70;89.97;100236.11;1634929;85;21480;-80
2022/12/24 09:07:41;;;;;;;27.85;17.17;;;;;;;4.71;90.02;100230.99;1642493;85;20978;-79
2022/12/24 09:10:25;;;;;;;28.07;16.50;;;;;;;4.73;90.02;100232.28;1619557;86;21375;-80
2022/12/24 09:13:10;;;;;;;32.00;19.30;;;;;;;4.68;89.91;100227.61;1642840;85;20958;-80
2022/12/24 09:15:55;;;;;;;26.82;18.55;;;;;;;4.68;89.90;100237.84;1599175;87;20981;-80
2022/12/24 09:18:40;;;;;;;27.50;18.35;;;;;;;4.65;89.91;100238.70;1641379;85;21558;-80
2022/12/24 09:21:25;;;;;;;28.07;17.80;;;;;;;4.69;90.02;100243.37;1590471;87;20999;-80
2022/12/24 09:24:10;;;;;;;24.92;17.23;;;;;;;4.72;90.05;100242.09;1604906;86;20933;-80
2022/12/24 09:26:56;;;;;;;31.12;18.45;;;;;;;4.73;90.01;100252.77;1621021;85;21576;-80
2022/12/24 09:29:41;;;;;;;31.35;18.95;;;;;;;4.71;89.93;100251.91;1643054;85;21574;-80
2022/12/24 09:32:26;;;;;;;29.67;17.73;;;;;;;4.69;89.89;100254.89;1617470;86;21014;-80
2022/12/24 09:35:11;;;;;;;27.77;18.82;;;;;;;4.64;89.82;100260.03;1641671;85;21100;-80
2022/12/24 09:38:02;;;;;;;30.60;19.48;;;;;;;4.64;89.91;100259.61;1641266;85;21136;-80
2022/12/24 09:40:49;;;;;;;36.10;19.62;;;;;;;4.61;89.87;100266.00;1644747;86;21576;-80
2022/12/24 09:43:37;;;;;;;32.75;20.05;;;;;;;4.64;89.95;100269.00;1646885;86;21132;-85
2022/12/24 09:46:32;;;;;;;29.63;19.90;;;;;;;4.67;90.01;100271.56;1645798;85;21148;-81
2022/12/24 09:49:25;;;;;;;33.55;20.82;;;;;;;4.71;90.00;100277.52;1644180;85;21104;-79
2022/12/24 09:52:15;;;;;;;33.00;20.05;;;;;;;4.69;89.88;100276.66;1646430;84;22016;-81
2022/12/24 09:55:17;;;;;;;33.08;20.85;;;;;;;4.69;89.93;100278.80;1645042;86;21097;-81
2022/12/24 09:58:05;;;;;;;33.00;20.43;;;;;;;4.67;89.79;100286.08;1647040;85;20998;-81
2022/12/24 10:00:51;;;;;;;34.55;20.05;;;;;;;4.65;89.89;100286.07;1618231;86;21451;-81
2022/12/24 10:03:36;;;;;;;34.58;22.77;;;;;;;4.68;89.92;100293.73;1591389;88;21025;-81
2022/12/24 10:06:58;;;;;;;41.70;24.98;;;;;;;4.68;89.80;100303.16;1644769;85;20966;-81
2022/12/24 10:09:59;;;;;;;32.42;22.05;;;;;;;4.65;89.82;100306.13;1646644;85;20970;-81
2022/12/24 10:13:28;;;;;;;32.08;20.35;;;;;;;4.69;89.94;100312.09;1647857;85;21506;-81
2022/12/24 10:16:54;;;;;;;35.10;20.50;;;;;;;4.71;89.89;100314.23;1641032;85;20950;-81
2022/12/24 10:19:47;;;;;;;38.63;21.85;;;;;;;4.74;89.92;100319.78;1645240;85;20958;-81
2022/12/24 10:23:05;;;;;;;40.90;23.73;;;;;;;4.75;89.88;100322.34;1646019;84;21018;-81
2022/12/24 10:26:36;;;;;;;37.17;20.80;;;;;;;4.79;90.00;100330.47;1644494;84;20994;-81
2022/12/24 10:29:31;;;;;;;36.83;20.75;;;;;;;4.84;89.99;100340.73;1648702;85;21576;-81
2022/12/24 10:32:26;;;;;;;32.73;19.45;;;;;;;4.87;89.95;100343.30;1645356;85;21438;-80
2022/12/24 10:35:22;;;;;;;31.90;18.60;;;;;;;4.86;89.81;100339.03;1513945;85;5001607;-81
2022/12/24 10:38:08;;;;;;;32.25;20.40;;;;;;;4.88;89.89;100342.45;1571531;90;21497;-81
2022/12/24 10:40:56;;;;;;;31.68;20.20;;;;;;;4.84;89.82;100341.59;1572022;90;21102;-80
2022/12/24 10:43:45;;;;;;;30.62;19.67;;;;;;;4.86;89.85;100346.72;1569970;88;21116;-80
2022/12/24 10:46:37;;;;;;;31.07;19.45;;;;;;;4.85;89.81;100353.55;1571080;89;21408;-80
2022/12/24 10:49:42;;;;;;;35.78;21.35;;;;;;;4.87;89.89;100353.55;1571900;88;21199;-81
2022/12/24 10:52:35;;;;;;;34.48;20.52;;;;;;;4.89;89.87;100358.25;1573884;89;21074;-80
2022/12/24 10:55:23;;;;;;;36.20;22.15;;;;;;;4.88;89.90;100356.12;1573868;89;465657;-80
2022/12/24 10:58:16;;;;;;;34.10;21.90;;;;;;;4.90;89.91;100355.70;1600237;88;21141;-80
2022/12/24 11:01:01;;;;;;;42.25;23.98;;;;;;;4.91;89.91;100356.13;1573857;89;21590;-80
2022/12/24 11:03:57;;;;;;;39.15;22.52;;;;;;;4.95;89.97;100364.25;1605738;87;21000;-80
2022/12/24 11:07:01;;;;;;;29.52;18.07;;;;;;;4.98;89.92;100358.28;1608749;88;21125;-80
2022/12/24 11:10:02;;;;;;;29.82;18.10;;;;;;;4.82;89.81;100330.91;1605655;88;21624;-80
2022/12/24 11:12:49;;;;;;;37.35;22.42;;;;;;;4.94;89.67;100370.66;1608711;88;21137;-80
2022/12/24 11:15:34;;;;;;;36.17;22.87;;;;;;;4.95;89.78;100383.89;1597731;88;21136;-80
2022/12/24 11:18:19;;;;;;;47.55;28.40;;;;;;;4.98;89.83;100386.47;1608187;88;21093;-80
2022/12/24 11:21:05;;;;;;;31.80;19.27;;;;;;;4.95;89.71;100384.75;1574288;88;21587;-80
2022/12/24 11:23:55;;;;;;;28.25;17.82;;;;;;;4.97;89.82;100386.89;1607729;87;21079;-80
2022/12/24 11:26:43;;;;;;;34.67;19.42;;;;;;;4.97;89.77;100389.45;1569367;89;21505;-80
2022/12/24 11:29:28;;;;;;;30.82;18.30;;;;;;;5.00;89.83;100393.73;1609846;88;21565;-81
2022/12/24 11:32:22;;;;;;;33.40;19.63;;;;;;;5.01;89.75;100394.59;1601743;87;21140;-80
2022/12/24 11:35:15;;;;;;;31.05;18.50;;;;;;;5.01;89.78;100391.59;1608725;88;21495;-80
2022/12/24 11:38:05;;;;;;;27.60;17.70;;;;;;;5.02;89.77;100393.73;1652260;84;21127;-80
2022/12/24 11:41:07;;;;;;;26.52;16.60;;;;;;;4.99;89.69;100391.59;1664821;85;21556;-80
2022/12/24 11:44:00;;;;;;;27.62;17.15;;;;;;;4.94;89.64;100397.55;1668227;84;21588;-80
2022/12/24 11:46:50;;;;;;;25.48;17.32;;;;;;;4.93;89.72;100400.97;1670533;84;21605;-80
2022/12/24 11:49:31;;;;;;;29.95;18.62;;;;;;;4.95;89.76;100409.09;1668739;85;21485;-80
2022/12/24 11:52:21;;;;;;;30.75;19.12;;;;;;;4.93;89.64;100408.66;1669014;85;21111;-80
2022/12/24 11:55:17;;;;;;;30.32;18.17;;;;;;;4.88;89.60;100414.19;1666865;85;21143;-81
2022/12/24 11:58:34;;;;;;;33.98;19.32;;;;;;;4.86;89.67;100414.17;1661302;85;21478;-80
2022/12/24 12:01:39;;;;;;;27.35;17.87;;;;;;;4.85;89.67;100410.33;1664783;84;21362;-80
2022/12/24 12:04:32;;;;;;;28.17;17.17;;;;;;;4.85;89.67;100419.30;1661833;84;20972;-80
2022/12/24 12:07:34;;;;;;;28.67;17.17;;;;;;;4.82;89.67;100418.00;1654808;84;21508;-80
2022/12/24 12:10:24;;;;;;;28.67;16.45;;;;;;;4.80;89.68;100415.44;1668109;85;21072;-80
2022/12/24 12:13:17;;;;;;;23.20;15.98;;;;;;;4.82;89.70;100420.14;1665541;85;21108;-80
2022/12/24 12:16:22;;;;;;;28.30;15.98;;;;;;;4.85;89.72;100424.42;1663736;85;21670;-80
2022/12/24 12:19:09;;;;;;;31.42;17.82;;;;;;;4.82;89.67;100430.38;1668417;85;21013;-80
2022/12/24 12:21:54;;;;;;;37.75;20.82;;;;;;;4.84;89.67;100436.38;1664990;85;21072;-81
2022/12/24 12:24:43;;;;;;;32.58;18.77;;;;;;;4.81;89.61;100443.19;1668279;85;21411;-80
2022/12/24 12:27:39;;;;;;;34.05;17.90;;;;;;;4.79;89.58;100446.16;1666415;85;21064;-80
2022/12/24 12:30:25;;;;;;;31.75;17.20;;;;;;;4.80;89.71;100446.59;1667636;84;21070;-80
2022/12/24 12:33:40;;;;;;;29.70;16.85;;;;;;;4.82;89.71;100447.46;1669896;84;21474;-80
2022/12/24 12:36:30;;;;;;;25.20;16.30;;;;;;;4.75;89.50;100435.47;1604693;84;21591;-80
2022/12/24 12:39:15;;;;;;;29.75;16.97;;;;;;;4.74;89.55;100436.32;1667332;85;21131;-80
2022/12/24 12:42:36;;;;;;;27.93;18.43;;;;;;;4.73;89.59;100441.02;1664673;85;21072;-80
2022/12/24 12:45:48;;;;;;;25.48;15.43;;;;;;;4.74;89.62;100450.41;1659744;85;21687;-80
2022/12/24 12:49:07;;;;;;;25.68;16.27;;;;;;;4.75;89.64;100442.73;1667399;85;21143;-80
2022/12/24 12:52:07;;;;;;;35.17;19.40;;;;;;;4.73;89.58;100441.86;1661347;85;21107;-80
2022/12/24 12:55:37;;;;;;;35.65;19.30;;;;;;;4.74;89.64;100451.27;1665802;85;21043;-80
2022/12/24 12:58:43;;;;;;;27.27;16.60;;;;;;;4.75;89.62;100452.12;1668354;84;21068;-80
2022/12/24 13:01:47;;;;;;;22.48;15.85;;;;;;;4.73;89.55;100462.78;1666561;85;21111;-80
2022/12/24 13:05:20;;;;;;;29.42;16.62;;;;;;;4.74;89.56;100467.91;1668432;85;21135;-80
2022/12/24 13:08:12;;;;;;;19.95;14.45;;;;;;;4.73;89.56;100472.60;1668519;84;21672;-80
2022/12/24 13:11:20;;;;;;;25.23;14.65;;;;;;;4.74;89.54;100482.42;1666546;85;21052;-80
2022/12/24 13:14:26;;;;;;;24.15;15.25;;;;;;;4.72;89.46;100486.68;1666221;84;21136;-80